Terminal Aerodrome Forecast
Issued by NWS Twin Cities, MN

Home | Current Version | Previous Version | Text Only | Print | Product List | Glossary On
Versions: 1 2 3 4 5 6 7 8 9 10 11 12 13 14 15 16 17 18 19 20 21 22 23 24
000
FTUS43 KMPX 230847 AAA
TAFSTC
TAF AMD
KSTC 230847Z 2309/2406 16012KT P6SM BKN110 WS020/18045KT
     FM231000 18014G20KT 6SM -TSRA SCT025 BKN040CB OVC100
      WS020/18045KT
     FM231100 18014G20KT P6SM BKN040 OVC100
     FM231500 19014G20KT P6SM VCSH OVC040
     FM232000 21011KT 6SM SHRA BKN060 PROB30 2320/2324 3SM TSRA
      BKN030CB
     FM240000 19007KT 6SM SHRA BKN080=

USA.gov is the U.S. government's official web portal to all federal, state and local government web resources and services.